createdAt,value
2018-01-23T00:00:32.579Z,6.58
2018-01-23T00:01:38.457Z,6.60
2018-01-23T00:02:45.221Z,6.57
2018-01-23T00:03:51.035Z,6.54
2018-01-23T00:04:56.824Z,6.54
2018-01-23T00:06:03.398Z,6.56
2018-01-23T00:07:09.215Z,6.55
2018-01-23T00:08:14.967Z,6.57
2018-01-23T00:09:21.505Z,6.60
2018-01-23T00:10:27.248Z,6.61
2018-01-23T00:11:33.035Z,6.58
2018-01-23T00:12:38.780Z,6.56
2018-01-23T00:13:44.533Z,6.52
2018-01-23T00:14:50.268Z,6.51
2018-01-23T00:15:56.031Z,6.53
2018-01-23T00:17:01.840Z,6.50
2018-01-23T00:18:07.402Z,6.46
2018-01-23T00:19:13.140Z,6.43
2018-01-23T00:20:18.910Z,6.43
2018-01-23T00:21:24.646Z,6.43
2018-01-23T00:22:30.658Z,6.48
2018-01-23T00:23:36.391Z,6.52
2018-01-23T00:24:42.145Z,6.56
2018-01-23T00:25:47.894Z,6.51
2018-01-23T00:26:53.652Z,6.49
2018-01-23T00:27:59.408Z,6.51
2018-01-23T00:29:05.916Z,6.50
2018-01-23T00:30:11.666Z,6.51
2018-01-23T00:31:17.415Z,6.47
2018-01-23T00:32:23.193Z,6.45
2018-01-23T00:33:29.751Z,6.46
2018-01-23T00:34:35.511Z,6.43
2018-01-23T00:35:41.999Z,6.40
2018-01-23T00:36:48.084Z,6.41
2018-01-23T00:37:53.830Z,6.41
2018-01-23T00:38:59.613Z,6.43
2018-01-23T00:40:06.139Z,6.42
2018-01-23T00:41:11.874Z,6.42
2018-01-23T00:42:17.612Z,6.40
2018-01-23T00:43:23.351Z,6.41
2018-01-23T00:44:29.119Z,6.42
2018-01-23T00:45:34.869Z,6.45
2018-01-23T00:46:41.403Z,6.48
2018-01-23T00:47:47.142Z,6.50
2018-01-23T00:48:52.867Z,6.52
2018-01-23T00:49:58.406Z,6.58
2018-01-23T00:51:04.175Z,6.57
2018-01-23T00:52:09.954Z,6.58
2018-01-23T00:53:15.688Z,6.58
2018-01-23T00:54:21.436Z,6.60
2018-01-23T00:55:27.189Z,6.61
2018-01-23T00:56:32.609Z,6.61
2018-01-23T00:57:38.698Z,6.62
2018-01-23T00:58:44.446Z,6.61
2018-01-23T00:59:50.177Z,6.61
2018-01-23T01:00:55.969Z,6.61
2018-01-23T01:02:02.472Z,6.63
2018-01-23T01:03:08.199Z,6.65
2018-01-23T01:04:13.951Z,6.64
2018-01-23T01:05:19.707Z,6.66
2018-01-23T01:06:26.262Z,6.67
2018-01-23T01:07:32.009Z,6.65
2018-01-23T01:08:37.750Z,6.62
2018-01-23T01:09:43.501Z,6.62
2018-01-23T01:10:49.269Z,6.62
2018-01-23T01:11:55.805Z,6.62
2018-01-23T01:13:01.574Z,6.60
2018-01-23T01:14:07.318Z,6.60
2018-01-23T01:15:13.110Z,6.62
2018-01-23T01:16:18.872Z,6.58
2018-01-23T01:17:24.637Z,6.59
2018-01-23T01:18:31.159Z,6.61
2018-01-23T01:19:36.961Z,6.59
2018-01-23T01:20:42.692Z,6.60
2018-01-23T01:21:49.201Z,6.61
2018-01-23T01:22:54.984Z,6.63
2018-01-23T01:24:01.569Z,6.60
2018-01-23T01:25:07.310Z,6.62
2018-01-23T01:26:13.039Z,6.63
2018-01-23T01:27:18.845Z,6.67
2018-01-23T01:28:24.619Z,6.68
2018-01-23T01:29:31.116Z,6.73
2018-01-23T01:30:36.863Z,6.74
2018-01-23T01:31:42.593Z,6.72
2018-01-23T01:32:48.327Z,6.69
2018-01-23T01:33:54.088Z,6.71
2018-01-23T01:34:59.821Z,6.73
2018-01-23T01:36:05.643Z,6.74
2018-01-23T01:37:11.377Z,6.78
2018-01-23T01:38:17.134Z,6.77
2018-01-23T01:39:22.888Z,6.81
2018-01-23T01:40:28.648Z,6.85
2018-01-23T01:41:34.384Z,6.91
2018-01-23T01:42:40.138Z,6.96
2018-01-23T01:43:45.879Z,6.99
2018-01-23T01:44:51.711Z,7.02
2018-01-23T01:45:57.444Z,7.04
2018-01-23T01:47:03.172Z,7.04
2018-01-23T01:48:08.930Z,7.05
2018-01-23T01:49:14.679Z,7.07
2018-01-23T01:50:20.443Z,7.06
2018-01-23T01:51:25.840Z,7.05
2018-01-23T01:52:31.599Z,7.07
2018-01-23T01:53:37.358Z,7.08
2018-01-23T01:54:43.111Z,7.10
2018-01-23T01:55:49.663Z,7.09
2018-01-23T01:56:55.393Z,7.07
2018-01-23T01:58:01.131Z,7.06
2018-01-23T01:59:06.919Z,7.07
2018-01-23T02:00:12.651Z,7.06
2018-01-23T02:01:18.420Z,7.02
2018-01-23T02:02:24.184Z,7.01
2018-01-23T02:03:29.928Z,6.95
2018-01-23T02:04:35.687Z,6.92
2018-01-23T02:05:41.429Z,6.86
2018-01-23T02:06:47.953Z,6.86
2018-01-23T02:07:53.687Z,6.83
2018-01-23T02:08:59.476Z,6.80
2018-01-23T02:10:05.078Z,6.80
2018-01-23T02:11:10.816Z,6.77
2018-01-23T02:12:16.590Z,6.75
2018-01-23T02:13:23.492Z,6.71
2018-01-23T02:14:29.220Z,6.69
2018-01-23T02:15:35.745Z,6.69
2018-01-23T02:16:41.477Z,6.68
2018-01-23T02:17:47.249Z,6.69
2018-01-23T02:18:52.976Z,6.68
2018-01-23T02:19:59.506Z,6.66
2018-01-23T02:21:05.263Z,6.64
2018-01-23T02:22:10.992Z,6.62
2018-01-23T02:23:16.764Z,6.65
2018-01-23T02:24:23.283Z,6.64
2018-01-23T02:25:29.011Z,6.61
2018-01-23T02:26:34.736Z,6.65
2018-01-23T02:27:41.258Z,6.65
2018-01-23T02:28:47.048Z,6.68
2018-01-23T02:29:52.790Z,6.72
2018-01-23T02:30:58.529Z,6.76
2018-01-23T02:32:04.275Z,6.78
2018-01-23T02:33:10.005Z,6.75
2018-01-23T02:34:15.767Z,6.73
2018-01-23T02:35:21.531Z,6.70
2018-01-23T02:36:27.277Z,6.67
2018-01-23T02:37:33.024Z,6.64
2018-01-23T02:38:38.770Z,6.57
2018-01-23T02:39:44.513Z,6.55
2018-01-23T02:40:51.754Z,6.50
2018-01-23T02:41:57.485Z,6.45
2018-01-23T02:43:03.220Z,6.42
2018-01-23T02:44:08.986Z,6.41
2018-01-23T02:45:14.767Z,6.38
2018-01-23T02:46:20.493Z,6.37
2018-01-23T02:47:26.304Z,6.38
2018-01-23T02:48:32.067Z,6.39
2018-01-23T02:49:37.816Z,6.41
2018-01-23T02:50:43.595Z,6.43
2018-01-23T02:51:50.178Z,6.48
2018-01-23T02:52:55.906Z,6.46
2018-01-23T02:54:02.062Z,6.48
2018-01-23T02:55:07.819Z,6.50
2018-01-23T02:56:13.632Z,6.54
2018-01-23T02:57:20.151Z,6.55
2018-01-23T02:58:25.898Z,6.59
2018-01-23T02:59:31.626Z,6.57
2018-01-23T03:00:37.356Z,6.59
2018-01-23T03:01:43.116Z,6.60
2018-01-23T03:02:48.866Z,6.57
2018-01-23T03:03:54.588Z,6.57
2018-01-23T03:05:00.337Z,6.56
2018-01-23T03:06:06.109Z,6.58
2018-01-23T03:07:12.642Z,6.62
2018-01-23T03:08:18.360Z,6.63
2018-01-23T03:09:24.112Z,6.66
2018-01-23T03:10:29.858Z,6.70
2018-01-23T03:11:35.584Z,6.76
2018-01-23T03:12:41.337Z,6.79
2018-01-23T03:13:47.060Z,6.76
2018-01-23T03:14:52.805Z,6.76
2018-01-23T03:15:58.552Z,6.77
2018-01-23T03:17:04.318Z,6.78
2018-01-23T03:18:10.068Z,6.79
2018-01-23T03:19:15.628Z,6.76
2018-01-23T03:20:22.147Z,6.75
2018-01-23T03:21:27.881Z,6.71
2018-01-23T03:22:33.630Z,6.71
2018-01-23T03:23:39.395Z,6.69
2018-01-23T03:24:45.132Z,6.68
2018-01-23T03:25:50.857Z,6.67
2018-01-23T03:26:56.588Z,6.68
2018-01-23T03:28:02.392Z,6.66
2018-01-23T03:29:08.170Z,6.63
2018-01-23T03:30:13.911Z,6.60
2018-01-23T03:31:19.670Z,6.58
2018-01-23T03:32:25.422Z,6.62
2018-01-23T03:33:31.178Z,6.61
2018-01-23T03:34:37.727Z,6.61
2018-01-23T03:35:44.253Z,6.59
2018-01-23T03:36:50.007Z,6.59
2018-01-23T03:37:56.133Z,6.62
2018-01-23T03:39:01.864Z,6.60
2018-01-23T03:40:07.700Z,6.61
2018-01-23T03:41:13.452Z,6.60
2018-01-23T03:42:19.185Z,6.62
2018-01-23T03:43:24.938Z,6.61
2018-01-23T03:44:30.679Z,6.60
2018-01-23T03:45:36.470Z,6.58
2018-01-23T03:46:42.227Z,6.62
2018-01-23T03:47:48.728Z,6.60
2018-01-23T03:48:54.184Z,6.60
2018-01-23T03:49:59.942Z,6.62
2018-01-23T03:51:05.701Z,6.64
2018-01-23T03:52:12.955Z,6.64
2018-01-23T03:53:18.685Z,6.64
2018-01-23T03:54:24.439Z,6.62
2018-01-23T03:55:30.180Z,6.60
2018-01-23T03:56:35.652Z,6.56
2018-01-23T03:57:42.169Z,6.59
2018-01-23T03:58:47.914Z,6.61
2018-01-23T03:59:53.674Z,6.65
2018-01-23T04:01:00.951Z,6.66
2018-01-23T04:02:06.712Z,6.67
2018-01-23T04:03:13.512Z,6.65
2018-01-23T04:04:19.261Z,6.67
2018-01-23T04:05:24.992Z,6.64
2018-01-23T04:06:30.755Z,6.66
2018-01-23T04:07:36.536Z,6.65
2018-01-23T04:08:42.292Z,6.62
2018-01-23T04:09:48.825Z,6.63
2018-01-23T04:10:55.321Z,6.63
2018-01-23T04:12:01.048Z,6.66
2018-01-23T04:13:07.590Z,6.67
2018-01-23T04:14:13.334Z,6.66
2018-01-23T04:15:18.895Z,6.65
2018-01-23T04:16:25.420Z,6.65
2018-01-23T04:17:32.327Z,6.66
2018-01-23T04:18:38.872Z,6.68
2018-01-23T04:19:45.467Z,6.72
2018-01-23T04:20:51.217Z,6.72
2018-01-23T04:21:56.948Z,6.69
2018-01-23T04:23:02.728Z,6.70
2018-01-23T04:24:08.502Z,6.73
2018-01-23T04:25:15.003Z,6.77
2018-01-23T04:26:20.758Z,6.81
2018-01-23T04:27:26.518Z,6.80
2018-01-23T04:28:32.256Z,6.81
2018-01-23T04:29:38.112Z,6.79
2018-01-23T04:30:43.868Z,6.83
2018-01-23T04:31:50.384Z,6.81
2018-01-23T04:32:56.502Z,6.80
2018-01-23T04:34:02.082Z,6.83
2018-01-23T04:35:07.859Z,6.81
2018-01-23T04:36:14.734Z,6.85
2018-01-23T04:37:21.243Z,6.83
2018-01-23T04:38:26.992Z,6.81
2018-01-23T04:39:32.707Z,6.84
2018-01-23T04:40:38.496Z,6.90
2018-01-23T04:41:44.247Z,6.89
2018-01-23T04:42:50.745Z,6.85
2018-01-23T04:43:56.713Z,6.83
2018-01-23T04:45:02.452Z,6.84
2018-01-23T04:46:08.227Z,6.82
2018-01-23T04:47:13.952Z,6.78
2018-01-23T04:48:19.693Z,6.74
2018-01-23T04:49:25.424Z,6.70
2018-01-23T04:50:31.160Z,6.67
2018-01-23T04:51:36.915Z,6.69
2018-01-23T04:52:42.670Z,6.68
2018-01-23T04:53:49.927Z,6.70
2018-01-23T04:54:55.650Z,6.68
2018-01-23T04:56:01.466Z,6.69
2018-01-23T04:57:07.236Z,6.70
2018-01-23T04:58:12.985Z,6.71
2018-01-23T04:59:18.736Z,6.71
2018-01-23T05:00:24.479Z,6.68
2018-01-23T05:01:30.231Z,6.68
2018-01-23T05:02:36.007Z,6.66
2018-01-23T05:03:42.515Z,6.64
2018-01-23T05:04:48.253Z,6.60
2018-01-23T05:05:53.989Z,6.59
2018-01-23T05:06:59.743Z,6.57
2018-01-23T05:08:05.522Z,6.56
2018-01-23T05:09:12.232Z,6.61
2018-01-23T05:10:18.162Z,6.67
2018-01-23T05:11:23.884Z,6.73
2018-01-23T05:12:30.390Z,6.77
2018-01-23T05:13:36.159Z,6.81
2018-01-23T05:14:41.907Z,6.81
2018-01-23T05:15:48.428Z,6.83
2018-01-23T05:16:54.178Z,6.85
2018-01-23T05:17:59.921Z,6.84
2018-01-23T05:19:05.678Z,6.78
2018-01-23T05:20:11.396Z,6.79
2018-01-23T05:21:17.120Z,6.74
2018-01-23T05:22:22.848Z,6.74
2018-01-23T05:23:28.595Z,6.68
2018-01-23T05:24:34.372Z,6.66
2018-01-23T05:25:40.159Z,6.71
2018-01-23T05:26:45.907Z,6.70
2018-01-23T05:27:51.711Z,6.72
2018-01-23T05:28:57.456Z,6.74
2018-01-23T05:30:03.613Z,6.76
2018-01-23T05:31:10.139Z,6.79
2018-01-23T05:32:18.758Z,6.80
2018-01-23T05:33:24.485Z,6.78
2018-01-23T05:34:30.242Z,6.78
2018-01-23T05:35:35.992Z,6.79
2018-01-23T05:36:41.961Z,6.83
2018-01-23T05:37:48.948Z,6.86
2018-01-23T05:38:54.708Z,6.86
2018-01-23T05:40:00.477Z,6.86
2018-01-23T05:41:06.273Z,6.87
2018-01-23T05:42:12.030Z,6.90
2018-01-23T05:43:17.755Z,6.91
2018-01-23T05:44:23.500Z,6.93
2018-01-23T05:45:29.221Z,6.92
2018-01-23T05:46:35.733Z,6.95
2018-01-23T05:47:41.467Z,6.98
2018-01-23T05:48:47.217Z,7.02
2018-01-23T05:49:52.970Z,7.05
2018-01-23T05:50:58.710Z,7.06
2018-01-23T05:52:04.506Z,7.08
2018-01-23T05:53:10.244Z,7.12
2018-01-23T05:54:16.747Z,7.13
2018-01-23T05:55:22.468Z,7.13
2018-01-23T05:56:28.059Z,7.11
2018-01-23T05:57:33.675Z,7.10
2018-01-23T05:58:39.402Z,7.11
2018-01-23T05:59:45.156Z,7.14
2018-01-23T06:00:50.949Z,7.14
2018-01-23T06:01:56.676Z,7.18
2018-01-23T06:03:03.215Z,7.19
2018-01-23T06:04:09.745Z,7.22
2018-01-23T06:05:15.600Z,7.23
2018-01-23T06:06:21.382Z,7.24
2018-01-23T06:07:27.967Z,7.22
2018-01-23T06:08:33.738Z,7.20
2018-01-23T06:09:39.488Z,7.22
2018-01-23T06:10:45.212Z,7.24
2018-01-23T06:11:50.948Z,7.27
2018-01-23T06:12:56.690Z,7.26
2018-01-23T06:14:02.500Z,7.23
2018-01-23T06:15:08.241Z,7.21
2018-01-23T06:16:13.976Z,7.23
2018-01-23T06:17:20.487Z,7.21
2018-01-23T06:18:26.217Z,7.19
2018-01-23T06:19:31.995Z,7.16
2018-01-23T06:20:37.731Z,7.19
2018-01-23T06:21:43.479Z,7.21
2018-01-23T06:22:49.297Z,7.25
2018-01-23T06:23:55.020Z,7.26
2018-01-23T06:25:00.773Z,7.28
2018-01-23T06:26:06.546Z,7.30
2018-01-23T06:27:12.263Z,7.27
2018-01-23T06:28:19.313Z,7.22
2018-01-23T06:29:25.043Z,7.25
2018-01-23T06:30:30.787Z,7.28
2018-01-23T06:31:36.615Z,7.25
2018-01-23T06:32:42.299Z,7.23
2018-01-23T06:33:48.169Z,7.21
2018-01-23T06:34:53.893Z,7.18
2018-01-23T06:35:59.323Z,7.18
2018-01-23T06:37:05.041Z,7.22
2018-01-23T06:38:10.788Z,7.20
2018-01-23T06:39:16.546Z,7.17
2018-01-23T06:40:22.436Z,7.13
2018-01-23T06:41:28.945Z,7.11
2018-01-23T06:42:34.706Z,7.12
2018-01-23T06:43:41.264Z,7.11
2018-01-23T06:44:46.988Z,7.09
2018-01-23T06:45:52.758Z,7.09
2018-01-23T06:46:58.501Z,7.07
2018-01-23T06:48:04.987Z,7.07
2018-01-23T06:49:10.729Z,7.06
2018-01-23T06:50:16.524Z,7.00
2018-01-23T06:51:22.429Z,6.96
2018-01-23T06:52:28.203Z,6.93
2018-01-23T06:53:33.950Z,6.89
2018-01-23T06:54:39.692Z,6.93
2018-01-23T06:55:45.421Z,6.93
2018-01-23T06:56:51.137Z,6.97
2018-01-23T06:57:56.887Z,6.96
2018-01-23T06:59:02.733Z,6.98
2018-01-23T07:00:08.469Z,6.97
2018-01-23T07:01:14.194Z,6.96
2018-01-23T07:02:19.933Z,6.92
2018-01-23T07:03:25.694Z,6.95
2018-01-23T07:04:31.432Z,6.97
2018-01-23T07:05:37.182Z,6.96
2018-01-23T07:06:42.984Z,6.98
2018-01-23T07:07:48.739Z,6.97
2018-01-23T07:08:54.790Z,6.98
2018-01-23T07:10:00.947Z,6.99
2018-01-23T07:11:06.693Z,6.98
2018-01-23T07:12:12.447Z,6.97
2018-01-23T07:13:18.397Z,6.96
2018-01-23T07:14:23.991Z,6.97
2018-01-23T07:15:29.732Z,6.96
2018-01-23T07:16:36.235Z,6.97
2018-01-23T07:17:41.985Z,7.00
2018-01-23T07:18:47.720Z,6.99
2018-01-23T07:19:53.518Z,7.01
2018-01-23T07:20:59.244Z,7.00
2018-01-23T07:22:05.752Z,6.97
2018-01-23T07:23:11.491Z,7.00
2018-01-23T07:24:17.214Z,7.01
2018-01-23T07:25:22.952Z,7.03
2018-01-23T07:26:28.707Z,7.00
2018-01-23T07:27:34.445Z,6.98
2018-01-23T07:28:40.388Z,6.96
2018-01-23T07:29:46.145Z,6.97
2018-01-23T07:30:51.888Z,7.01
2018-01-23T07:31:57.633Z,7.01
2018-01-23T07:33:03.568Z,7.03
2018-01-23T07:34:09.291Z,7.02
2018-01-23T07:35:15.028Z,7.02
2018-01-23T07:36:21.572Z,7.06
2018-01-23T07:37:28.072Z,7.10
2018-01-23T07:38:33.811Z,7.10
2018-01-23T07:39:39.529Z,7.15
2018-01-23T07:40:45.276Z,7.17
2018-01-23T07:41:51.048Z,7.20
2018-01-23T07:42:56.822Z,7.22
2018-01-23T07:44:02.564Z,7.27
2018-01-23T07:45:08.303Z,7.29
2018-01-23T07:46:14.803Z,7.30
2018-01-23T07:47:20.548Z,7.28
2018-01-23T07:48:26.268Z,7.27
2018-01-23T07:49:31.997Z,7.30
2018-01-23T07:50:38.529Z,7.31
2018-01-23T07:51:44.252Z,7.34
2018-01-23T07:52:49.999Z,7.37
2018-01-23T07:53:55.721Z,7.40
2018-01-23T07:55:01.452Z,7.41
2018-01-23T07:56:07.195Z,7.44
2018-01-23T07:57:12.938Z,7.46
2018-01-23T07:58:18.684Z,7.50
2018-01-23T07:59:24.415Z,7.51
2018-01-23T08:00:30.167Z,7.48
2018-01-23T08:01:35.907Z,7.50
2018-01-23T08:02:41.648Z,7.51
2018-01-23T08:03:48.176Z,7.52
2018-01-23T08:04:53.930Z,7.52
2018-01-23T08:05:59.684Z,7.58
2018-01-23T08:07:05.433Z,7.61
2018-01-23T08:08:11.159Z,7.62
2018-01-23T08:09:16.928Z,7.65
2018-01-23T08:10:22.656Z,7.67
2018-01-23T08:11:29.161Z,7.68
2018-01-23T08:12:34.917Z,7.66
2018-01-23T08:13:41.412Z,7.64
2018-01-23T08:14:47.191Z,7.66
2018-01-23T08:15:52.918Z,7.69
2018-01-23T08:16:58.680Z,7.68
2018-01-23T08:18:04.846Z,7.67
2018-01-23T08:19:11.344Z,7.65
2018-01-23T08:20:17.137Z,7.67
2018-01-23T08:21:23.625Z,7.68
2018-01-23T08:22:29.360Z,7.70
2018-01-23T08:23:35.102Z,7.71
2018-01-23T08:24:40.606Z,7.70
2018-01-23T08:25:46.366Z,7.72
2018-01-23T08:26:52.861Z,7.74
2018-01-23T08:27:58.584Z,7.78
2018-01-23T08:29:04.764Z,7.75
2018-01-23T08:30:10.516Z,7.78
2018-01-23T08:31:16.373Z,7.81
2018-01-23T08:32:22.120Z,7.85
2018-01-23T08:33:27.879Z,7.89
2018-01-23T08:34:34.365Z,7.94
2018-01-23T08:35:40.120Z,7.97
2018-01-23T08:36:45.888Z,8.00
2018-01-23T08:37:52.199Z,8.05
2018-01-23T08:38:57.944Z,8.08
2018-01-23T08:40:03.691Z,8.13
2018-01-23T08:41:09.451Z,8.16
2018-01-23T08:42:15.224Z,8.15
2018-01-23T08:43:20.975Z,8.18
2018-01-23T08:44:28.312Z,8.25
2018-01-23T08:45:34.063Z,8.32
2018-01-23T08:46:39.811Z,8.32
2018-01-23T08:47:45.583Z,8.35
2018-01-23T08:48:51.900Z,8.32
2018-01-23T08:49:57.655Z,8.35
2018-01-23T08:51:03.375Z,8.40
2018-01-23T08:52:09.132Z,8.43
2018-01-23T08:53:14.921Z,8.47
2018-01-23T08:54:21.443Z,8.54
2018-01-23T08:55:27.177Z,8.55
2018-01-23T08:56:32.970Z,8.58
2018-01-23T08:57:39.482Z,8.59
2018-01-23T08:58:45.260Z,8.59
2018-01-23T08:59:51.006Z,8.63
2018-01-23T09:00:57.708Z,8.68
2018-01-23T09:02:03.991Z,8.74
2018-01-23T09:03:09.729Z,8.76
2018-01-23T09:04:15.484Z,8.77
2018-01-23T09:05:21.235Z,8.80
2018-01-23T09:06:27.001Z,8.83
2018-01-23T09:07:33.516Z,8.83
2018-01-23T09:08:39.277Z,8.81
2018-01-23T09:09:45.820Z,8.85
2018-01-23T09:10:51.582Z,8.92
2018-01-23T09:11:57.349Z,8.96
2018-01-23T09:13:03.924Z,9.00
2018-01-23T09:14:09.680Z,8.98
2018-01-23T09:15:15.118Z,8.98
2018-01-23T09:16:20.849Z,9.00
2018-01-23T09:17:26.088Z,9.00
2018-01-23T09:18:31.835Z,9.02
2018-01-23T09:19:37.815Z,9.05
2018-01-23T09:20:43.576Z,9.04
2018-01-23T09:21:50.079Z,9.05
2018-01-23T09:22:55.848Z,9.07
2018-01-23T09:24:01.668Z,9.07
2018-01-23T09:25:07.412Z,9.11
2018-01-23T09:26:13.188Z,9.17
2018-01-23T09:27:18.946Z,9.20
2018-01-23T09:28:25.451Z,9.20
2018-01-23T09:29:31.207Z,9.22
2018-01-23T09:30:36.955Z,9.23
2018-01-23T09:31:42.748Z,9.23
2018-01-23T09:32:48.511Z,9.24
2018-01-23T09:33:54.252Z,9.23
2018-01-23T09:35:00.036Z,9.25
2018-01-23T09:36:05.771Z,9.25
2018-01-23T09:37:11.532Z,9.22
2018-01-23T09:38:18.053Z,9.21
2018-01-23T09:39:23.806Z,9.23
2018-01-23T09:40:29.544Z,9.21
2018-01-23T09:41:35.303Z,9.24
2018-01-23T09:42:41.068Z,9.32
2018-01-23T09:43:47.569Z,9.37
2018-01-23T09:44:53.304Z,9.42
2018-01-23T09:45:58.865Z,9.41
2018-01-23T09:47:04.734Z,9.41
2018-01-23T09:48:11.285Z,9.49
2018-01-23T09:49:17.032Z,9.47
2018-01-23T09:50:22.760Z,9.52
2018-01-23T09:51:28.515Z,9.54
2018-01-23T09:52:35.017Z,9.57
2018-01-23T09:53:40.802Z,9.55
2018-01-23T09:54:47.312Z,9.56
2018-01-23T09:55:53.188Z,9.60
2018-01-23T09:56:58.937Z,9.63
2018-01-23T09:58:04.677Z,9.65
2018-01-23T09:59:10.463Z,9.69
2018-01-23T10:00:16.478Z,9.71
2018-01-23T10:01:22.235Z,9.75
2018-01-23T10:02:28.732Z,9.81
2018-01-23T10:03:34.489Z,9.81
2018-01-23T10:04:40.251Z,9.85
2018-01-23T10:05:45.998Z,9.90
2018-01-23T10:06:51.734Z,9.91
2018-01-23T10:07:57.494Z,9.92
2018-01-23T10:09:03.050Z,9.89
2018-01-23T10:10:09.567Z,9.90
2018-01-23T10:11:15.305Z,9.95
2018-01-23T10:12:21.110Z,10.04
2018-01-23T10:13:26.848Z,10.11
2018-01-23T10:14:33.001Z,10.14
2018-01-23T10:15:38.787Z,10.22
2018-01-23T10:16:44.520Z,10.23
2018-01-23T10:17:51.056Z,10.22
2018-01-23T10:18:56.789Z,10.19
2018-01-23T10:20:02.527Z,10.20
2018-01-23T10:21:09.082Z,10.17
2018-01-23T10:22:15.609Z,10.12
2018-01-23T10:23:21.173Z,10.11
2018-01-23T10:24:26.393Z,10.14
2018-01-23T10:25:32.712Z,10.18
2018-01-23T10:26:38.514Z,10.20
2018-01-23T10:27:44.352Z,10.26
2018-01-23T10:28:50.095Z,10.33
2018-01-23T10:29:55.859Z,10.38
2018-01-23T10:31:01.629Z,10.49
2018-01-23T10:32:08.184Z,10.56
2018-01-23T10:33:13.947Z,10.62
2018-01-23T10:34:20.491Z,10.69
2018-01-23T10:35:26.254Z,10.78
2018-01-23T10:36:32.769Z,10.77
2018-01-23T10:37:38.626Z,10.67
2018-01-23T10:38:44.426Z,10.68
2018-01-23T10:39:50.187Z,10.73
2018-01-23T10:40:55.953Z,10.72
2018-01-23T10:42:01.720Z,10.70
2018-01-23T10:43:08.267Z,10.72
2018-01-23T10:44:14.028Z,10.69
2018-01-23T10:45:19.800Z,10.61
2018-01-23T10:46:25.555Z,10.57
2018-01-23T10:47:31.347Z,10.60
2018-01-23T10:48:37.907Z,10.61
2018-01-23T10:49:44.437Z,10.60
2018-01-23T10:50:50.198Z,10.57
2018-01-23T10:51:55.762Z,10.62
2018-01-23T10:53:01.339Z,10.54
2018-01-23T10:54:07.153Z,10.48
2018-01-23T10:55:12.898Z,10.44
2018-01-23T10:56:18.644Z,10.40
2018-01-23T10:57:24.651Z,10.40
2018-01-23T10:58:30.850Z,10.48
2018-01-23T10:59:36.714Z,10.57
2018-01-23T11:00:47.584Z,10.60
2018-01-23T11:01:53.358Z,10.55
2018-01-23T11:02:59.878Z,10.54
2018-01-23T11:04:05.686Z,10.61
2018-01-23T11:05:11.465Z,10.63
2018-01-23T11:06:17.241Z,10.62
2018-01-23T11:07:23.779Z,10.64
2018-01-23T11:08:29.550Z,10.66
2018-01-23T11:09:36.073Z,10.66
2018-01-23T11:10:41.873Z,10.67
2018-01-23T11:11:47.646Z,10.73
2018-01-23T11:12:54.197Z,10.75
2018-01-23T11:13:59.955Z,10.76
2018-01-23T11:15:05.710Z,10.70
2018-01-23T11:16:13.015Z,10.67
2018-01-23T11:17:19.344Z,10.65
2018-01-23T11:18:25.089Z,10.62
2018-01-23T11:19:30.852Z,10.60
2018-01-23T11:20:37.361Z,10.65
2018-01-23T11:21:43.168Z,10.68
2018-01-23T11:22:48.927Z,10.74
2018-01-23T11:23:54.707Z,10.82
2018-01-23T11:25:00.470Z,10.86
2018-01-23T11:26:06.984Z,10.82
2018-01-23T11:27:12.754Z,10.76
2018-01-23T11:28:18.534Z,10.76
2018-01-23T11:29:24.281Z,10.79
2018-01-23T11:30:30.065Z,10.77
2018-01-23T11:31:35.830Z,10.73
2018-01-23T11:32:42.371Z,10.67
2018-01-23T11:33:48.111Z,10.62
2018-01-23T11:34:53.885Z,10.61
2018-01-23T11:36:00.421Z,10.64
2018-01-23T11:37:05.974Z,10.63
2018-01-23T11:38:12.568Z,10.64
2018-01-23T11:39:18.346Z,10.62
2018-01-23T11:40:24.105Z,10.67
2018-01-23T11:41:30.638Z,10.66
2018-01-23T11:42:36.403Z,10.66
2018-01-23T11:43:42.205Z,10.66
2018-01-23T11:44:47.972Z,10.65
2018-01-23T11:45:53.747Z,10.66
2018-01-23T11:47:00.325Z,10.70
2018-01-23T11:48:06.833Z,10.72
2018-01-23T11:49:12.609Z,10.72
2018-01-23T11:50:19.147Z,10.77
2018-01-23T11:51:25.657Z,10.83
2018-01-23T11:52:31.424Z,10.87
2018-01-23T11:53:37.164Z,10.86
2018-01-23T11:54:42.950Z,10.83
2018-01-23T11:55:48.689Z,10.83
2018-01-23T11:56:54.432Z,10.83
2018-01-23T11:58:00.967Z,10.88
2018-01-23T11:59:06.727Z,10.90
2018-01-23T12:00:12.487Z,10.93
2018-01-23T12:01:19.030Z,10.97
2018-01-23T12:02:24.789Z,10.93
2018-01-23T12:03:31.305Z,10.91
2018-01-23T12:04:37.310Z,10.87
2018-01-23T12:05:43.073Z,10.85
2018-01-23T12:06:48.831Z,10.77
2018-01-23T12:07:54.573Z,10.81
2018-01-23T12:09:00.326Z,10.82
2018-01-23T12:10:06.073Z,10.87
2018-01-23T12:11:11.855Z,10.92
2018-01-23T12:12:17.596Z,10.96
2018-01-23T12:13:23.376Z,10.98
2018-01-23T12:14:29.143Z,10.98
2018-01-23T12:15:34.896Z,10.96
2018-01-23T12:16:41.449Z,10.99
2018-01-23T12:17:47.207Z,11.02
2018-01-23T12:18:53.752Z,11.04
2018-01-23T12:19:59.792Z,11.11
2018-01-23T12:21:07.059Z,11.10
2018-01-23T12:22:12.881Z,11.12
2018-01-23T12:23:18.663Z,11.18
2018-01-23T12:24:25.247Z,11.13
2018-01-23T12:25:31.132Z,11.10
2018-01-23T12:26:36.895Z,11.10
2018-01-23T12:27:43.464Z,11.11
2018-01-23T12:28:49.227Z,11.16
2018-01-23T12:29:55.747Z,11.15
2018-01-23T12:31:01.655Z,11.16
2018-01-23T12:32:08.358Z,11.12
2018-01-23T12:33:13.944Z,11.07
2018-01-23T12:34:20.443Z,11.04
2018-01-23T12:35:25.839Z,11.02
2018-01-23T12:36:32.363Z,11.00
2018-01-23T12:37:38.105Z,11.05
2018-01-23T12:38:44.671Z,11.12
2018-01-23T12:39:50.419Z,11.12
2018-01-23T12:40:56.185Z,11.10
2018-01-23T12:42:02.708Z,11.12
2018-01-23T12:43:09.991Z,11.14
2018-01-23T12:44:15.787Z,11.12
2018-01-23T12:45:22.314Z,11.11
2018-01-23T12:46:28.988Z,11.08
2018-01-23T12:47:34.882Z,11.12
2018-01-23T12:48:40.614Z,11.20
2018-01-23T12:49:46.393Z,11.19
2018-01-23T12:50:52.161Z,11.19
2018-01-23T12:51:58.135Z,11.20
2018-01-23T12:53:03.900Z,11.14
2018-01-23T12:54:09.659Z,11.13
2018-01-23T12:55:15.416Z,11.13
2018-01-23T12:56:21.913Z,11.08
2018-01-23T12:57:27.653Z,11.01
2018-01-23T12:58:33.442Z,11.02
2018-01-23T12:59:39.303Z,10.98
2018-01-23T13:00:45.680Z,10.98
2018-01-23T13:01:51.439Z,10.94
2018-01-23T13:02:57.195Z,10.91
2018-01-23T13:04:02.966Z,10.92
2018-01-23T13:05:09.561Z,10.93
2018-01-23T13:06:15.420Z,10.94
2018-01-23T13:07:22.488Z,10.92
2018-01-23T13:08:28.246Z,10.89
2018-01-23T13:09:34.018Z,10.91
2018-01-23T13:10:39.779Z,10.91
2018-01-23T13:11:46.328Z,10.90
2018-01-23T13:12:52.069Z,10.90
2018-01-23T13:13:57.914Z,10.93
2018-01-23T13:15:04.209Z,10.91
2018-01-23T13:16:10.044Z,10.87
2018-01-23T13:17:15.916Z,10.79
2018-01-23T13:18:21.683Z,10.81
2018-01-23T13:19:27.470Z,10.79
2018-01-23T13:20:32.882Z,10.77
2018-01-23T13:21:39.080Z,10.78
2018-01-23T13:22:44.863Z,10.82
2018-01-23T13:23:50.643Z,10.84
2018-01-23T13:24:57.135Z,10.86
2018-01-23T13:26:02.683Z,10.85
2018-01-23T13:27:08.443Z,10.80
2018-01-23T13:28:14.214Z,10.84
2018-01-23T13:29:20.024Z,10.85
2018-01-23T13:30:25.788Z,10.86
2018-01-23T13:31:32.294Z,10.85
2018-01-23T13:32:38.051Z,10.83
2018-01-23T13:33:43.824Z,10.82
2018-01-23T13:34:50.375Z,10.82
2018-01-23T13:35:56.129Z,10.83
2018-01-23T13:37:02.633Z,10.81
2018-01-23T13:38:08.371Z,10.72
2018-01-23T13:39:14.142Z,10.68
2018-01-23T13:40:19.894Z,10.64
2018-01-23T13:41:26.415Z,10.62
2018-01-23T13:42:32.177Z,10.59
2018-01-23T13:43:37.935Z,10.57
2018-01-23T13:44:43.692Z,10.53
2018-01-23T13:45:50.214Z,10.55
2018-01-23T13:46:55.975Z,10.57
2018-01-23T13:48:01.719Z,10.57
2018-01-23T13:49:08.244Z,10.56
2018-01-23T13:50:14.019Z,10.57
2018-01-23T13:51:19.768Z,10.49
2018-01-23T13:52:25.509Z,10.46
2018-01-23T13:53:31.265Z,10.45
2018-01-23T13:54:38.727Z,10.45
2018-01-23T13:55:45.397Z,10.44
2018-01-23T13:56:51.914Z,10.51
2018-01-23T13:57:57.637Z,10.53
2018-01-23T13:59:03.390Z,10.53
2018-01-23T14:00:09.140Z,10.54
2018-01-23T14:01:14.951Z,10.57
2018-01-23T14:02:20.732Z,10.61
2018-01-23T14:03:26.474Z,10.63
2018-01-23T14:04:32.237Z,10.65
2018-01-23T14:05:37.969Z,10.65
2018-01-23T14:06:43.739Z,10.64
2018-01-23T14:07:50.241Z,10.64
2018-01-23T14:08:55.987Z,10.59
2018-01-23T14:10:01.782Z,10.60
2018-01-23T14:11:08.307Z,10.57
2018-01-23T14:12:14.092Z,10.55
2018-01-23T14:13:20.636Z,10.62
2018-01-23T14:14:27.151Z,10.68
2018-01-23T14:15:32.896Z,10.72
2018-01-23T14:16:39.184Z,10.71
2018-01-23T14:17:45.036Z,10.80
2018-01-23T14:18:50.773Z,10.81
2018-01-23T14:19:56.522Z,10.80
2018-01-23T14:21:03.036Z,10.78
2018-01-23T14:22:08.790Z,10.75
2018-01-23T14:23:14.567Z,10.75
2018-01-23T14:24:21.927Z,10.68
2018-01-23T14:25:27.682Z,10.67
2018-01-23T14:26:33.972Z,10.67
2018-01-23T14:27:39.715Z,10.65
2018-01-23T14:28:45.472Z,10.61